createdAt,value
2018-01-22T00:01:25.440Z,25.00
2018-01-22T00:03:52.909Z,25.57
2018-01-22T00:06:20.383Z,25.70
2018-01-22T00:08:47.878Z,25.23
2018-01-22T00:11:15.367Z,27.23
2018-01-22T00:13:43.630Z,25.47
2018-01-22T00:16:11.100Z,26.90
2018-01-22T00:18:39.355Z,27.33
2018-01-22T00:21:06.852Z,26.87
2018-01-22T00:23:34.320Z,27.27
2018-01-22T00:26:01.806Z,27.30
2018-01-22T00:28:29.281Z,28.63
2018-01-22T00:30:56.770Z,26.93
2018-01-22T00:33:24.238Z,28.13
2018-01-22T00:35:51.729Z,26.70
2018-01-22T00:38:19.217Z,27.37
2018-01-22T00:40:46.697Z,28.30
2018-01-22T00:43:14.204Z,27.93
2018-01-22T00:45:42.463Z,27.10
2018-01-22T00:48:09.954Z,30.63
2018-01-22T00:50:37.423Z,27.80
2018-01-22T00:53:04.918Z,27.43
2018-01-22T00:55:32.378Z,28.47
2018-01-22T00:57:59.863Z,26.80
2018-01-22T01:00:27.359Z,28.20
2018-01-22T01:02:54.811Z,26.40
2018-01-22T01:05:23.084Z,26.30
2018-01-22T01:07:50.546Z,26.73
2018-01-22T01:10:18.051Z,28.60
2018-01-22T01:12:45.517Z,29.50
2018-01-22T01:15:13.034Z,29.93
2018-01-22T01:17:40.514Z,29.47
2018-01-22T01:20:07.978Z,30.83
2018-01-22T01:22:35.439Z,29.77
2018-01-22T01:25:02.930Z,30.43
2018-01-22T01:27:30.433Z,29.83
2018-01-22T01:29:57.906Z,31.93
2018-01-22T01:32:25.402Z,30.03
2018-01-22T01:34:52.885Z,31.37
2018-01-22T01:37:20.342Z,30.10
2018-01-22T01:39:47.842Z,30.20
2018-01-22T01:42:15.331Z,28.77
2018-01-22T01:44:42.793Z,30.83
2018-01-22T01:47:10.326Z,31.93
2018-01-22T01:49:37.734Z,31.70
2018-01-22T01:52:05.218Z,31.60
2018-01-22T01:54:32.693Z,31.67
2018-01-22T01:57:00.194Z,32.20
2018-01-22T01:59:27.682Z,28.93
2018-01-22T02:01:56.166Z,29.37
2018-01-22T02:04:23.622Z,30.17
2018-01-22T02:06:51.082Z,27.70
2018-01-22T02:09:19.338Z,28.70
2018-01-22T02:11:46.868Z,28.70
2018-01-22T02:14:15.110Z,28.87
2018-01-22T02:16:42.598Z,26.17
2018-01-22T02:19:10.087Z,29.90
2018-01-22T02:21:37.552Z,26.83
2018-01-22T02:24:05.024Z,28.03
2018-01-22T02:26:32.514Z,26.97
2018-01-22T02:29:00.015Z,28.73
2018-01-22T02:31:27.499Z,27.00
2018-01-22T02:33:54.971Z,28.90
2018-01-22T02:36:22.462Z,30.33
2018-01-22T02:38:50.027Z,29.03
2018-01-22T02:41:17.506Z,29.80
2018-01-22T02:43:44.972Z,27.60
2018-01-22T02:46:12.558Z,30.17
2018-01-22T02:48:40.059Z,28.43
2018-01-22T02:51:07.534Z,29.73
2018-01-22T02:56:08.901Z,30.13
2018-01-22T02:58:36.394Z,27.57
2018-01-22T03:01:03.863Z,28.73
2018-01-22T03:03:31.513Z,27.57
2018-01-22T03:05:59.738Z,29.17
2018-01-22T03:08:27.242Z,29.53
2018-01-22T03:10:54.706Z,28.80
2018-01-22T03:13:22.234Z,30.03
2018-01-22T03:15:49.707Z,28.47
2018-01-22T03:18:18.715Z,28.23
2018-01-22T03:20:46.172Z,27.93
2018-01-22T03:23:13.667Z,29.10
2018-01-22T03:25:41.167Z,29.27
2018-01-22T03:28:08.743Z,28.27
2018-01-22T03:30:36.236Z,29.67
2018-01-22T03:33:03.700Z,28.87
2018-01-22T03:35:31.182Z,28.80
2018-01-22T03:37:59.453Z,28.40
2018-01-22T03:40:26.951Z,29.73
2018-01-22T03:42:54.415Z,29.77
2018-01-22T03:45:21.913Z,29.20
2018-01-22T03:47:49.377Z,28.47
2018-01-22T03:50:16.845Z,27.83
2018-01-22T03:52:44.339Z,27.60
2018-01-22T03:55:11.855Z,29.10
2018-01-22T03:57:39.316Z,28.87
2018-01-22T04:00:06.815Z,28.80
2018-01-22T04:02:34.283Z,28.57
2018-01-22T04:05:01.746Z,27.77
2018-01-22T04:07:29.238Z,28.30
2018-01-22T04:09:56.703Z,27.93
2018-01-22T04:12:24.186Z,28.00
2018-01-22T04:14:51.693Z,30.17
2018-01-22T04:17:19.175Z,28.83
2018-01-22T04:19:46.631Z,30.03
2018-01-22T04:22:14.890Z,28.40
2018-01-22T04:24:42.358Z,29.90
2018-01-22T04:27:09.866Z,30.60
2018-01-22T04:29:37.354Z,26.00
2018-01-22T04:32:04.831Z,29.07
2018-01-22T04:34:32.346Z,29.43
2018-01-22T04:36:59.810Z,29.97
2018-01-22T04:39:27.317Z,29.23
2018-01-22T04:41:54.771Z,29.00
2018-01-22T04:44:22.232Z,28.83
2018-01-22T04:46:49.731Z,28.77
2018-01-22T04:49:17.975Z,28.47
2018-01-22T04:51:46.199Z,29.83
2018-01-22T04:54:13.693Z,29.87
2018-01-22T04:56:41.186Z,28.60
2018-01-22T04:59:09.455Z,30.03
2018-01-22T05:01:36.947Z,29.37
2018-01-22T05:04:04.440Z,30.70
2018-01-22T05:06:31.951Z,30.37
2018-01-22T05:08:59.407Z,31.23
2018-01-22T05:11:26.902Z,31.30
2018-01-22T05:13:54.385Z,28.20
2018-01-22T05:16:21.860Z,28.97
2018-01-22T05:18:49.351Z,29.77
2018-01-22T05:21:16.818Z,29.83
2018-01-22T05:23:44.296Z,30.70
2018-01-22T05:26:11.766Z,31.60
2018-01-22T05:28:39.223Z,32.37
2018-01-22T05:31:06.721Z,31.90
2018-01-22T05:33:34.177Z,30.80
2018-01-22T05:36:01.662Z,32.83
2018-01-22T05:38:29.122Z,30.10
2018-01-22T05:40:56.635Z,32.50
2018-01-22T05:43:24.095Z,32.63
2018-01-22T05:45:51.583Z,32.10
2018-01-22T05:48:19.086Z,32.00
2018-01-22T05:50:46.546Z,32.30
2018-01-22T05:53:14.047Z,32.67
2018-01-22T05:55:41.525Z,31.63
2018-01-22T05:58:09.011Z,30.20
2018-01-22T06:00:36.691Z,30.30
2018-01-22T06:03:04.182Z,32.73
2018-01-22T06:05:31.642Z,32.23
2018-01-22T06:07:59.106Z,33.60
2018-01-22T06:10:26.611Z,32.90
2018-01-22T06:12:54.066Z,31.03
2018-01-22T06:15:21.534Z,33.40
2018-01-22T06:17:49.031Z,33.03
2018-01-22T06:20:16.487Z,31.70
2018-01-22T06:22:43.999Z,32.23
2018-01-22T06:25:11.466Z,32.00
2018-01-22T06:27:38.994Z,31.63
2018-01-22T06:30:06.462Z,34.50
2018-01-22T06:32:33.931Z,33.37
2018-01-22T06:35:01.398Z,32.47
2018-01-22T06:37:28.901Z,34.30
2018-01-22T06:39:56.376Z,32.63
2018-01-22T06:42:23.863Z,34.40
2018-01-22T06:45:04.438Z,34.90
2018-01-22T07:30:48.386Z,36.43
2018-01-22T07:33:16.938Z,38.10
2018-01-22T07:35:44.822Z,41.00
2018-01-22T07:38:12.561Z,40.77
2018-01-22T07:40:40.892Z,35.80
2018-01-22T07:43:09.019Z,36.40
2018-01-22T07:45:37.202Z,42.30
2018-01-22T07:48:05.090Z,40.50
2018-01-22T07:50:32.691Z,43.00
2018-01-22T07:53:00.673Z,35.90
2018-01-22T07:55:28.237Z,38.97
2018-01-22T07:57:56.128Z,37.93
2018-01-22T08:00:23.912Z,36.63
2018-01-22T08:02:51.608Z,38.40
2018-01-22T08:05:19.826Z,40.87
2018-01-22T08:07:47.981Z,38.97
2018-01-22T08:10:17.265Z,41.70
2018-01-22T08:12:46.026Z,40.50
2018-01-22T08:15:13.783Z,42.93
2018-01-22T08:17:41.414Z,42.57
2018-01-22T08:20:09.005Z,43.07
2018-01-22T08:22:37.257Z,39.03
2018-01-22T08:25:04.739Z,41.67
2018-01-22T08:27:32.480Z,38.77
2018-01-22T08:30:00.024Z,38.90
2018-01-22T08:32:27.667Z,40.47
2018-01-22T08:34:55.155Z,42.83
2018-01-22T08:37:22.681Z,40.57
2018-01-22T08:39:50.142Z,40.13
2018-01-22T08:42:17.626Z,37.97
2018-01-22T08:44:45.109Z,43.23
2018-01-22T08:47:13.821Z,37.23
2018-01-22T08:49:41.639Z,37.43
2018-01-22T08:52:10.021Z,39.93
2018-01-22T08:54:37.644Z,39.53
2018-01-22T08:57:05.096Z,39.17
2018-01-22T08:59:32.744Z,36.40
2018-01-22T09:02:00.350Z,39.17
2018-01-22T09:04:27.933Z,37.47
2018-01-22T09:06:55.638Z,38.23
2018-01-22T09:09:23.230Z,38.67
2018-01-22T09:11:52.310Z,37.70
2018-01-22T09:14:19.845Z,37.57
2018-01-22T09:16:47.323Z,36.80
2018-01-22T09:19:14.868Z,35.90
2018-01-22T09:21:42.619Z,36.63
2018-01-22T09:24:10.203Z,38.47
2018-01-22T09:26:37.762Z,37.90
2018-01-22T09:29:05.227Z,39.03
2018-01-22T09:31:32.727Z,40.53
2018-01-22T09:34:01.039Z,39.40
2018-01-22T09:36:28.586Z,38.90
2018-01-22T09:38:56.804Z,39.87
2018-01-22T09:41:24.329Z,39.27
2018-01-22T09:43:51.817Z,37.93
2018-01-22T09:46:19.459Z,36.77
2018-01-22T09:48:47.202Z,39.80
2018-01-22T09:51:14.908Z,35.67
2018-01-22T09:53:43.163Z,37.87
2018-01-22T09:56:10.711Z,35.03
2018-01-22T09:58:38.172Z,37.73
2018-01-22T10:01:05.661Z,37.70
2018-01-22T10:03:33.178Z,39.20
2018-01-22T10:06:00.716Z,38.43
2018-01-22T10:08:28.307Z,41.07
2018-01-22T10:10:55.854Z,38.83
2018-01-22T10:13:23.430Z,36.60
2018-01-22T10:15:51.424Z,35.30
2018-01-22T10:18:19.308Z,37.20
2018-01-22T10:20:46.853Z,37.60
2018-01-22T10:23:14.409Z,35.87
2018-01-22T10:25:42.435Z,40.47
2018-01-22T10:28:10.029Z,37.47
2018-01-22T10:30:37.478Z,40.53
2018-01-22T10:33:04.946Z,36.63
2018-01-22T10:35:33.259Z,35.83
2018-01-22T10:38:00.755Z,35.50
2018-01-22T10:40:28.247Z,34.83
2018-01-22T10:42:55.719Z,36.87
2018-01-22T10:45:23.992Z,37.07
2018-01-22T10:47:51.495Z,38.60
2018-01-22T10:50:18.978Z,38.73
2018-01-22T10:52:46.463Z,36.67
2018-01-22T10:55:14.714Z,37.57
2018-01-22T10:57:42.233Z,35.70
2018-01-22T11:00:09.702Z,37.43
2018-01-22T11:02:37.302Z,35.67
2018-01-22T11:05:04.800Z,36.27
2018-01-22T11:07:32.266Z,37.03
2018-01-22T11:09:59.858Z,37.43
2018-01-22T11:12:27.370Z,38.03
2018-01-22T11:14:54.852Z,36.40
2018-01-22T11:17:22.361Z,37.60
2018-01-22T11:19:49.814Z,38.70
2018-01-22T11:22:17.270Z,38.97
2018-01-22T11:24:44.884Z,38.40
2018-01-22T11:27:12.901Z,39.67
2018-01-22T11:29:40.622Z,35.70
2018-01-22T11:32:08.321Z,38.17
2018-01-22T11:34:36.047Z,41.53
2018-01-22T11:37:03.538Z,36.50
2018-01-22T11:39:31.038Z,36.40
2018-01-22T11:41:58.526Z,36.03
2018-01-22T11:44:26.050Z,38.30
2018-01-22T11:46:53.508Z,36.73
2018-01-22T11:49:21.000Z,33.93
2018-01-22T11:51:48.486Z,35.17
2018-01-22T11:54:16.117Z,33.17
2018-01-22T11:56:43.583Z,35.33
2018-01-22T11:59:11.836Z,39.43
2018-01-22T12:01:39.327Z,38.17
2018-01-22T12:04:06.799Z,37.67
2018-01-22T12:06:35.060Z,39.17
2018-01-22T12:09:02.579Z,40.83
2018-01-22T12:11:30.159Z,35.80
2018-01-22T12:13:57.662Z,35.37
2018-01-22T12:16:25.989Z,37.20
2018-01-22T12:18:53.577Z,37.50
2018-01-22T12:21:21.790Z,35.67
2018-01-22T12:23:49.972Z,37.90
2018-01-22T12:26:17.806Z,37.27
2018-01-22T12:28:46.167Z,36.57
2018-01-22T12:31:14.550Z,39.60
2018-01-22T12:33:43.036Z,39.10
2018-01-22T12:36:11.301Z,38.10
2018-01-22T12:38:38.876Z,36.73
2018-01-22T12:41:06.494Z,36.27
2018-01-22T12:43:34.461Z,36.20
2018-01-22T12:46:03.242Z,37.07
2018-01-22T12:48:31.267Z,37.40
2018-01-22T12:50:59.403Z,34.53
2018-01-22T12:53:27.722Z,39.97
2018-01-22T12:55:56.264Z,36.60
2018-01-22T12:58:25.470Z,35.60
2018-01-22T13:00:53.833Z,35.93
2018-01-22T13:03:22.125Z,34.87
2018-01-22T13:05:49.653Z,32.30
2018-01-22T13:08:17.138Z,34.33
2018-01-22T13:10:44.707Z,35.67
2018-01-22T13:13:13.616Z,36.03
2018-01-22T13:15:41.211Z,37.13
2018-01-22T13:18:09.447Z,35.23
2018-01-22T13:20:37.835Z,34.57
2018-01-22T13:23:06.906Z,33.20
2018-01-22T13:25:39.343Z,33.10
2018-01-22T13:28:08.570Z,30.93
2018-01-22T13:30:36.978Z,33.20
2018-01-22T13:33:05.095Z,32.80
2018-01-22T13:35:33.307Z,35.17
2018-01-22T13:38:01.493Z,32.17
2018-01-22T13:40:35.540Z,31.17
2018-01-22T13:43:04.561Z,33.07
2018-01-22T13:45:33.588Z,31.60
2018-01-22T13:48:02.024Z,33.77
2018-01-22T13:50:30.372Z,35.60
2018-01-22T13:52:58.792Z,36.00
2018-01-22T13:55:27.073Z,34.70
2018-01-22T13:57:55.537Z,33.77
2018-01-22T14:00:23.968Z,34.27
2018-01-22T14:02:51.576Z,34.30
2018-01-22T14:05:20.193Z,33.67
2018-01-22T14:07:47.887Z,32.90
2018-01-22T14:10:16.129Z,31.67
2018-01-22T14:12:43.612Z,34.07
2018-01-22T14:15:12.215Z,34.27
2018-01-22T14:17:40.111Z,32.40
2018-01-22T14:20:08.594Z,34.03
2018-01-22T14:22:36.068Z,33.67
2018-01-22T14:25:03.558Z,34.33
2018-01-22T14:27:31.786Z,33.60
2018-01-22T14:30:00.807Z,34.30
2018-01-22T14:32:28.903Z,35.43
2018-01-22T14:34:56.380Z,35.47
2018-01-22T14:37:23.886Z,35.23
2018-01-22T14:39:51.722Z,33.67
2018-01-22T14:42:22.311Z,33.20
2018-01-22T14:44:50.591Z,34.23
2018-01-22T14:47:18.067Z,33.13
2018-01-22T14:49:45.527Z,35.80
2018-01-22T14:52:13.026Z,33.87
2018-01-22T14:54:40.497Z,34.53
2018-01-22T14:57:07.980Z,33.70
2018-01-22T14:59:35.427Z,33.33
2018-01-22T15:02:03.663Z,35.33
2018-01-22T15:04:31.119Z,34.37
2018-01-22T15:06:59.032Z,34.87
2018-01-22T15:09:27.230Z,38.33
2018-01-22T15:11:54.686Z,36.23
2018-01-22T15:14:22.176Z,37.07
2018-01-22T15:16:50.467Z,35.87
2018-01-22T15:19:17.963Z,36.30
2018-01-22T15:21:45.417Z,35.97
2018-01-22T15:24:12.876Z,37.40
2018-01-22T15:26:41.614Z,37.20
2018-01-22T15:29:09.071Z,36.93
2018-01-22T15:31:36.537Z,35.77
2018-01-22T15:34:03.997Z,36.57
2018-01-22T15:36:31.448Z,34.70
2018-01-22T15:38:58.900Z,35.40
2018-01-22T15:41:26.389Z,36.00
2018-01-22T15:43:54.599Z,37.37
2018-01-22T15:46:22.062Z,36.07
2018-01-22T15:48:49.512Z,35.90
2018-01-22T15:51:16.982Z,36.73
2018-01-22T15:53:44.444Z,38.37
2018-01-22T15:56:11.928Z,37.23
2018-01-22T15:58:39.387Z,38.00
2018-01-22T16:01:07.651Z,36.87
2018-01-22T16:03:35.092Z,36.57
2018-01-22T16:06:02.566Z,37.20
2018-01-22T16:08:30.036Z,34.53
2018-01-22T16:10:58.242Z,37.13
2018-01-22T16:13:25.710Z,38.40
2018-01-22T16:15:53.173Z,38.17
2018-01-22T16:18:20.616Z,36.97
2018-01-22T16:20:48.068Z,39.13
2018-01-22T16:23:15.551Z,37.27
2018-01-22T16:25:43.012Z,37.00
2018-01-22T16:28:11.226Z,37.40
2018-01-22T16:30:39.437Z,37.17
2018-01-22T16:33:06.928Z,37.37
2018-01-22T16:35:35.167Z,36.70
2018-01-22T16:38:02.615Z,37.23
2018-01-22T16:40:30.093Z,37.03
2018-01-22T16:42:57.570Z,37.60
2018-01-22T16:45:25.014Z,35.10
2018-01-22T16:47:57.449Z,38.07
2018-01-22T16:50:24.900Z,40.20
2018-01-22T16:52:52.394Z,38.40
2018-01-22T16:55:19.870Z,41.23
2018-01-22T16:57:47.336Z,39.07
2018-01-22T17:00:14.779Z,40.83
2018-01-22T17:02:42.241Z,39.43
2018-01-22T17:05:09.731Z,40.00
2018-01-22T17:07:37.163Z,40.87
2018-01-22T17:10:04.653Z,41.97
2018-01-22T17:12:32.128Z,40.27
2018-01-22T17:14:59.586Z,39.57
2018-01-22T17:17:27.054Z,39.70
2018-01-22T17:19:54.605Z,42.80
2018-01-22T17:22:22.047Z,42.93
2018-01-22T17:24:49.499Z,39.60
2018-01-22T17:27:17.734Z,43.13
2018-01-22T17:29:45.190Z,43.67
2018-01-22T17:32:12.646Z,43.37
2018-01-22T17:34:40.113Z,44.03
2018-01-22T17:37:07.566Z,45.50
2018-01-22T17:39:35.038Z,44.40
2018-01-22T17:42:02.489Z,46.13
2018-01-22T17:44:29.981Z,44.60
2018-01-22T17:46:57.457Z,44.13
2018-01-22T17:49:25.734Z,45.10
2018-01-22T17:51:53.207Z,43.67
2018-01-22T17:54:20.663Z,45.00
2018-01-22T17:56:48.130Z,45.47
2018-01-22T17:59:15.597Z,44.20
2018-01-22T18:01:44.018Z,44.40
2018-01-22T18:04:12.241Z,45.07
2018-01-22T18:06:40.826Z,41.00
2018-01-22T18:09:08.311Z,44.97
2018-01-22T18:11:35.770Z,46.03
2018-01-22T18:14:03.226Z,43.73
2018-01-22T18:16:30.708Z,44.20
2018-01-22T18:18:58.167Z,45.50
2018-01-22T18:21:25.663Z,46.50
2018-01-22T18:23:53.127Z,44.23
2018-01-22T18:26:22.103Z,44.93
2018-01-22T18:28:50.214Z,46.33
2018-01-22T18:31:18.528Z,45.50
2018-01-22T18:33:46.039Z,46.27
2018-01-22T18:36:13.569Z,45.17
2018-01-22T18:38:41.628Z,47.77
2018-01-22T18:41:09.084Z,54.43
2018-01-22T18:43:36.572Z,48.67
2018-01-22T18:46:08.335Z,48.53
2018-01-22T18:48:35.827Z,49.43
2018-01-22T18:51:03.458Z,46.77
2018-01-22T18:53:30.931Z,44.23
2018-01-22T18:55:59.203Z,48.57
2018-01-22T18:58:27.991Z,49.13
2018-01-22T19:00:56.667Z,48.97
2018-01-22T19:03:25.484Z,49.73
2018-01-22T19:05:52.944Z,49.10
2018-01-22T19:08:23.111Z,51.47
2018-01-22T19:10:51.380Z,50.30
2018-01-22T19:13:20.632Z,50.63
2018-01-22T19:15:48.865Z,51.43
2018-01-22T19:18:17.147Z,49.07
2018-01-22T19:20:44.643Z,52.10
2018-01-22T19:23:14.132Z,53.40
2018-01-22T19:25:42.394Z,46.90
2018-01-22T19:28:09.912Z,51.33
2018-01-22T19:30:37.401Z,51.53
2018-01-22T19:33:05.593Z,50.63
2018-01-22T19:35:35.642Z,57.13
2018-01-22T19:38:04.708Z,51.23
2018-01-22T19:40:33.098Z,58.30
2018-01-22T19:43:02.473Z,55.80
2018-01-22T19:45:29.952Z,53.53
2018-01-22T19:47:59.180Z,53.60
2018-01-22T19:50:27.559Z,55.63
2018-01-22T19:52:56.263Z,56.43
2018-01-22T19:55:23.802Z,60.00
2018-01-22T19:57:52.931Z,54.00
2018-01-22T20:00:21.311Z,55.57
2018-01-22T20:02:48.883Z,55.67
2018-01-22T20:05:17.851Z,56.63
2018-01-22T20:07:45.338Z,53.43
2018-01-22T20:10:13.720Z,52.10
2018-01-22T20:12:42.286Z,54.37
2018-01-22T20:15:12.810Z,55.30
2018-01-22T20:17:44.412Z,56.33
2018-01-22T20:20:12.960Z,52.17
2018-01-22T20:22:40.426Z,56.60
2018-01-22T20:25:12.061Z,53.77
2018-01-22T20:27:39.553Z,54.40
2018-01-22T20:30:08.204Z,57.03
2018-01-22T20:32:35.835Z,59.70
2018-01-22T20:35:03.335Z,57.10
2018-01-22T20:37:31.186Z,56.13
2018-01-22T20:39:58.663Z,55.93
2018-01-22T20:45:02.486Z,58.80
2018-01-22T20:47:30.174Z,63.80
2018-01-22T20:49:58.919Z,62.67
2018-01-22T20:52:26.719Z,62.47
2018-01-22T20:54:55.103Z,63.77
2018-01-22T20:57:22.553Z,59.17
2018-01-22T20:59:50.039Z,56.00
2018-01-22T21:02:18.271Z,64.17
2018-01-22T21:04:46.560Z,66.67
2018-01-22T21:07:14.028Z,68.63
2018-01-22T21:09:43.044Z,67.73
2018-01-22T21:12:11.280Z,64.00
2018-01-22T21:14:38.747Z,65.83
2018-01-22T21:17:07.024Z,60.27
2018-01-22T21:19:39.526Z,64.77
2018-01-22T21:22:09.549Z,65.53
2018-01-22T21:24:37.026Z,64.13
2018-01-22T21:27:04.559Z,63.10
2018-01-22T21:29:32.044Z,55.67
2018-01-22T21:32:00.122Z,58.73
2018-01-22T21:34:27.592Z,59.40
2018-01-22T21:36:55.074Z,61.80
2018-01-22T21:39:22.526Z,54.83
2018-01-22T21:41:49.999Z,55.17
2018-01-22T21:44:17.438Z,53.23
2018-01-22T21:49:19.643Z,52.23
2018-01-22T21:51:48.535Z,57.80
2018-01-22T21:54:16.807Z,54.93
2018-01-22T21:56:45.032Z,53.17
2018-01-22T21:59:12.796Z,54.07
2018-01-22T22:01:41.025Z,55.90
2018-01-22T22:04:09.256Z,56.10
2018-01-22T22:06:37.487Z,57.23
2018-01-22T22:09:04.932Z,57.03
2018-01-22T22:11:32.387Z,58.60
2018-01-22T22:13:59.846Z,55.50
2018-01-22T22:16:27.286Z,56.13
2018-01-22T22:18:54.761Z,56.03
2018-01-22T22:21:22.211Z,54.40
2018-01-22T22:23:49.654Z,56.57
2018-01-22T22:26:17.123Z,53.40
2018-01-22T22:28:45.346Z,57.53
2018-01-22T22:31:12.818Z,59.83
2018-01-22T22:33:40.663Z,59.07
2018-01-22T22:36:08.158Z,54.60
2018-01-22T22:38:35.775Z,59.17
2018-01-22T22:41:03.970Z,58.50
2018-01-22T22:43:31.439Z,55.30
2018-01-22T22:45:58.912Z,61.90
2018-01-22T22:48:26.348Z,61.77
2018-01-22T22:50:53.802Z,59.67
2018-01-22T22:53:21.259Z,56.70
2018-01-22T22:55:48.731Z,58.17
2018-01-22T22:58:16.188Z,60.37
2018-01-22T23:00:43.655Z,60.40
2018-01-22T23:03:11.099Z,62.37
2018-01-22T23:05:38.586Z,57.90
2018-01-22T23:08:06.022Z,59.80
2018-01-22T23:10:33.506Z,58.27
2018-01-22T23:13:01.735Z,56.33
2018-01-22T23:15:29.196Z,60.80
2018-01-22T23:17:56.678Z,57.03
2018-01-22T23:20:24.120Z,54.23
2018-01-22T23:22:51.590Z,56.00
2018-01-22T23:25:19.842Z,53.80
2018-01-22T23:27:47.298Z,55.43
2018-01-22T23:30:14.742Z,56.50
2018-01-22T23:32:42.212Z,56.90
2018-01-22T23:35:09.655Z,58.90
2018-01-22T23:37:37.126Z,56.17
2018-01-22T23:40:05.322Z,56.47
2018-01-22T23:42:33.550Z,53.00
2018-01-22T23:45:01.022Z,53.17
2018-01-22T23:47:28.478Z,53.07
2018-01-22T23:49:55.950Z,53.43
2018-01-22T23:52:23.406Z,53.80
2018-01-22T23:54:50.874Z,54.57
2018-01-22T23:57:18.321Z,55.97
2018-01-22T23:59:45.790Z,54.60
